Time;durP1;ratioP1;P1;durP2;ratioP2;P2;SDS_P1;SDS_P2;PMS_P1;PMS_P2;Temp;Humidity;BMP_temperature;BMP_pressure;BME280_temperature;BME280_humidity;BME280_pressure;Samples;Min_cycle;Max_cycle;Signal;HPM_P1;HPM_P2
2022/04/11 00:01:15;;;;;;;6.72;2.72;;;;;;;;;;5031851;28;20047;-68
2022/04/11 00:03:41;;;;;;;8.05;3.00;;;;;;;;;;5031612;28;20046;-68
2022/04/11 00:06:07;;;;;;;7.80;3.22;;;;;;;;;;5032279;28;20041;-68
2022/04/11 00:08:33;;;;;;;7.13;2.90;;;;;;;;;;5035155;28;20037;-68
2022/04/11 00:11:00;;;;;;;7.63;2.72;;;;;;;;;;5043879;28;20049;-68
2022/04/11 00:13:26;;;;;;;8.20;2.40;;;;;;;;;;5014660;28;20037;-68
2022/04/11 00:15:52;;;;;;;10.27;3.08;;;;;;;;;;5032702;28;20032;-68
2022/04/11 00:18:18;;;;;;;7.18;1.98;;;;;;;;;;5031997;28;20044;-68
2022/04/11 00:20:44;;;;;;;7.00;2.45;;;;;;;;;;5031107;28;20026;-68
2022/04/11 00:23:10;;;;;;;12.02;2.65;;;;;;;;;;5032814;28;20108;-68
2022/04/11 00:25:37;;;;;;;7.30;2.63;;;;;;;;;;5030141;28;20040;-68
2022/04/11 00:28:03;;;;;;;5.28;2.50;;;;;;;;;;5032492;28;20543;-68
2022/04/11 00:30:29;;;;;;;8.38;3.20;;;;;;;;;;5026702;28;20029;-68
2022/04/11 00:32:55;;;;;;;3.80;2.33;;;;;;;;;;5042663;28;20044;-68
2022/04/11 00:35:21;;;;;;;4.60;2.08;;;;;;;;;;5032133;28;20041;-68
2022/04/11 00:37:47;;;;;;;5.30;2.20;;;;;;;;;;5030535;28;20509;-68
2022/04/11 00:40:15;;;;;;;6.05;2.55;;;;;;;;;;5030987;28;20037;-68
2022/04/11 00:42:41;;;;;;;4.70;1.90;;;;;;;;;;5036187;28;20654;-68
2022/04/11 00:45:08;;;;;;;6.03;2.03;;;;;;;;;;5040238;28;20584;-68
2022/04/11 00:47:34;;;;;;;5.32;1.92;;;;;;;;;;5028193;28;20033;-68
2022/04/11 00:50:01;;;;;;;4.80;2.10;;;;;;;;;;5011036;28;20033;-68
2022/04/11 00:52:30;;;;;;;8.02;2.35;;;;;;;;;;5038697;28;20021;-69
2022/04/11 00:54:57;;;;;;;7.10;2.00;;;;;;;;;;5015749;28;20057;-68
2022/04/11 00:57:23;;;;;;;6.40;2.13;;;;;;;;;;5036344;28;20048;-68
2022/04/11 00:59:50;;;;;;;3.40;2.13;;;;;;;;;;5030506;28;20481;-68
2022/04/11 01:02:16;;;;;;;3.83;1.90;;;;;;;;;;5011934;28;20497;-68
2022/04/11 01:04:42;;;;;;;4.40;1.85;;;;;;;;;;5022077;28;20375;-68
2022/04/11 01:07:08;;;;;;;4.07;2.05;;;;;;;;;;5011953;28;20107;-68
2022/04/11 01:09:35;;;;;;;3.90;1.60;;;;;;;;;;5025881;28;20207;-69
2022/04/11 01:12:01;;;;;;;5.20;1.77;;;;;;;;;;5031743;28;20046;-68
2022/04/11 01:14:27;;;;;;;6.35;2.10;;;;;;;;;;5030037;28;20029;-68
2022/04/11 01:16:54;;;;;;;3.60;1.67;;;;;;;;;;5031900;28;20033;-68
2022/04/11 01:19:21;;;;;;;5.28;1.55;;;;;;;;;;5029205;28;20038;-68
2022/04/11 01:21:47;;;;;;;4.28;1.63;;;;;;;;;;5011994;28;20491;-68
2022/04/11 01:24:13;;;;;;;4.05;1.83;;;;;;;;;;5005728;28;20034;-69
2022/04/11 01:26:40;;;;;;;6.95;1.73;;;;;;;;;;5020894;28;20022;-68
2022/04/11 01:29:08;;;;;;;5.15;2.00;;;;;;;;;;5023555;28;20114;-69
2022/04/11 01:31:34;;;;;;;4.28;1.70;;;;;;;;;;5038961;28;20029;-68
2022/04/11 01:34:00;;;;;;;4.32;1.60;;;;;;;;;;5029392;28;20077;-68
2022/04/11 01:36:26;;;;;;;5.10;1.90;;;;;;;;;;5013023;28;20030;-68
2022/04/11 01:38:52;;;;;;;3.17;1.52;;;;;;;;;;5011212;28;20045;-68
2022/04/11 01:41:20;;;;;;;3.78;1.48;;;;;;;;;;5031049;28;20029;-68
2022/04/11 01:43:46;;;;;;;7.15;2.05;;;;;;;;;;5026746;28;20049;-68
2022/04/11 01:46:12;;;;;;;4.43;2.22;;;;;;;;;;5030606;28;20468;-68
2022/04/11 01:48:38;;;;;;;3.45;1.50;;;;;;;;;;5028330;28;20405;-68
2022/04/11 01:51:05;;;;;;;4.68;1.48;;;;;;;;;;5039407;28;20033;-68
2022/04/11 01:53:31;;;;;;;4.97;1.88;;;;;;;;;;5028964;28;20025;-69
2022/04/11 01:55:57;;;;;;;9.07;1.58;;;;;;;;;;5031376;28;20104;-68
2022/04/11 01:58:23;;;;;;;4.72;2.10;;;;;;;;;;5028524;28;20029;-68
2022/04/11 02:00:49;;;;;;;2.67;1.35;;;;;;;;;;5025073;28;20367;-68
2022/04/11 02:03:15;;;;;;;6.40;2.03;;;;;;;;;;5025671;28;20038;-68
2022/04/11 02:05:42;;;;;;;3.63;1.63;;;;;;;;;;5030075;28;20425;-69
2022/04/11 02:08:10;;;;;;;2.47;1.48;;;;;;;;;;5026459;28;20026;-68
2022/04/11 02:10:36;;;;;;;4.70;1.65;;;;;;;;;;5019749;28;20438;-68
2022/04/11 02:13:03;;;;;;;3.50;1.55;;;;;;;;;;4993890;28;20044;-68
2022/04/11 02:15:29;;;;;;;9.18;2.03;;;;;;;;;;5005600;28;20385;-68
2022/04/11 02:17:55;;;;;;;5.82;1.52;;;;;;;;;;5010161;28;20033;-68
2022/04/11 02:20:21;;;;;;;6.95;1.73;;;;;;;;;;5006785;28;20064;-69
2022/04/11 02:22:48;;;;;;;6.50;1.77;;;;;;;;;;4990815;28;20395;-68
2022/04/11 02:25:15;;;;;;;2.30;1.08;;;;;;;;;;4992524;28;20062;-69
2022/04/11 02:27:42;;;;;;;7.65;1.45;;;;;;;;;;5020767;28;20030;-68
2022/04/11 02:30:09;;;;;;;3.50;1.40;;;;;;;;;;5016387;28;20042;-68
2022/04/11 02:32:35;;;;;;;3.17;1.10;;;;;;;;;;4992295;28;20489;-68
2022/04/11 02:35:01;;;;;;;4.00;1.30;;;;;;;;;;5005291;28;20017;-68
2022/04/11 02:37:27;;;;;;;3.35;1.20;;;;;;;;;;5011985;28;20041;-68
2022/04/11 02:39:53;;;;;;;5.05;1.35;;;;;;;;;;5012884;28;20044;-69
2022/04/11 02:42:26;;;;;;;8.85;1.25;;;;;;;;;;5002447;28;20026;-68
2022/04/11 02:44:52;;;;;;;5.30;1.33;;;;;;;;;;5000886;28;20034;-67
2022/04/11 02:47:18;;;;;;;20.10;9.13;;;;;;;;;;5032478;28;20033;-68
2022/04/11 02:49:45;;;;;;;5.80;1.88;;;;;;;;;;5009980;28;20167;-67
2022/04/11 02:52:11;;;;;;;5.13;2.90;;;;;;;;;;5013983;28;20026;-67
2022/04/11 02:54:38;;;;;;;1.95;1.35;;;;;;;;;;5012045;28;20085;-68
2022/04/11 02:57:04;;;;;;;7.38;1.30;;;;;;;;;;5014108;28;20054;-68
2022/04/11 02:59:32;;;;;;;5.40;1.50;;;;;;;;;;5009562;28;20542;-68
2022/04/11 03:01:58;;;;;;;4.63;1.50;;;;;;;;;;5009795;28;20041;-68
2022/04/11 03:04:24;;;;;;;3.35;1.20;;;;;;;;;;5012483;28;20034;-69
2022/04/11 03:06:50;;;;;;;2.90;1.52;;;;;;;;;;5007285;28;20042;-69
2022/04/11 03:09:16;;;;;;;3.25;1.48;;;;;;;;;;5012757;28;20045;-69
2022/04/11 03:11:42;;;;;;;9.52;2.67;;;;;;;;;;5032942;28;20037;-69
2022/04/11 03:14:08;;;;;;;3.88;1.63;;;;;;;;;;5022535;28;20029;-69
2022/04/11 03:16:34;;;;;;;5.63;1.40;;;;;;;;;;5041758;28;20041;-68
2022/04/11 03:19:00;;;;;;;2.38;1.30;;;;;;;;;;5028088;28;20041;-69
2022/04/11 03:21:26;;;;;;;4.97;1.98;;;;;;;;;;5033705;28;20102;-69
2022/04/11 03:23:52;;;;;;;3.88;1.52;;;;;;;;;;5036723;28;20041;-69
2022/04/11 03:26:18;;;;;;;3.05;1.40;;;;;;;;;;5032923;28;20377;-69
2022/04/11 03:28:44;;;;;;;4.32;1.48;;;;;;;;;;5031722;28;20038;-70
2022/04/11 03:31:11;;;;;;;3.72;1.52;;;;;;;;;;5021646;28;20021;-68
2022/04/11 03:33:37;;;;;;;7.80;2.05;;;;;;;;;;5037739;28;20029;-68
2022/04/11 03:36:03;;;;;;;13.43;2.72;;;;;;;;;;5039370;28;20033;-68
2022/04/11 03:38:29;;;;;;;6.07;2.20;;;;;;;;;;4998804;28;20034;-68
2022/04/11 03:40:55;;;;;;;8.38;2.15;;;;;;;;;;5029756;28;20029;-69
2022/04/11 03:43:21;;;;;;;4.00;1.58;;;;;;;;;;5015996;28;20030;-69
2022/04/11 03:45:47;;;;;;;2.38;1.30;;;;;;;;;;5006639;28;20029;-69
2022/04/11 03:48:13;;;;;;;5.00;1.83;;;;;;;;;;5029831;28;20355;-69
2022/04/11 03:50:40;;;;;;;4.85;1.63;;;;;;;;;;5043634;28;20025;-69
2022/04/11 03:53:06;;;;;;;5.30;1.60;;;;;;;;;;5034993;28;20110;-68
2022/04/11 03:55:32;;;;;;;5.20;1.70;;;;;;;;;;5034891;28;20141;-68
2022/04/11 03:57:58;;;;;;;6.68;1.42;;;;;;;;;;5032229;28;20044;-68
2022/04/11 04:00:24;;;;;;;5.13;1.50;;;;;;;;;;5031811;28;20033;-68
2022/04/11 04:02:50;;;;;;;3.80;1.60;;;;;;;;;;5031073;28;20033;-69
2022/04/11 04:05:17;;;;;;;3.72;1.77;;;;;;;;;;5031830;28;20041;-69
2022/04/11 04:07:43;;;;;;;5.25;1.63;;;;;;;;;;5031172;28;20377;-69
2022/04/11 04:10:09;;;;;;;4.38;1.80;;;;;;;;;;5031484;28;20661;-68
2022/04/11 04:12:36;;;;;;;9.18;1.63;;;;;;;;;;5032311;28;20068;-68
2022/04/11 04:15:03;;;;;;;5.15;1.80;;;;;;;;;;5032522;28;20126;-68
2022/04/11 04:17:29;;;;;;;3.75;1.90;;;;;;;;;;5030445;28;20041;-69
2022/04/11 04:19:55;;;;;;;4.43;1.58;;;;;;;;;;5029456;28;20030;-69
2022/04/11 04:22:21;;;;;;;9.50;1.75;;;;;;;;;;5031702;28;20025;-68
2022/04/11 04:24:48;;;;;;;6.38;1.42;;;;;;;;;;5024778;28;20508;-69
2022/04/11 04:27:14;;;;;;;9.77;2.30;;;;;;;;;;5025819;28;20029;-69
2022/04/11 04:29:40;;;;;;;3.90;1.35;;;;;;;;;;5017922;28;20037;-71
2022/04/11 04:32:06;;;;;;;4.65;1.75;;;;;;;;;;5034481;28;20037;-69
2022/04/11 04:34:32;;;;;;;2.45;1.33;;;;;;;;;;5018579;28;20029;-69
2022/04/11 04:36:59;;;;;;;4.47;2.05;;;;;;;;;;5029379;28;20068;-69
2022/04/11 04:39:25;;;;;;;3.58;1.98;;;;;;;;;;5031792;28;20378;-69
2022/04/11 04:41:53;;;;;;;3.75;1.77;;;;;;;;;;5044456;28;20116;-69
2022/04/11 04:44:19;;;;;;;3.50;1.58;;;;;;;;;;5029287;28;20048;-69
2022/04/11 04:46:45;;;;;;;7.15;2.00;;;;;;;;;;5025233;28;20033;-68
2022/04/11 04:49:12;;;;;;;5.43;1.75;;;;;;;;;;5010155;28;20038;-69
2022/04/11 04:51:38;;;;;;;3.22;1.50;;;;;;;;;;5030801;28;20060;-68
2022/04/11 04:54:04;;;;;;;4.18;1.83;;;;;;;;;;5030494;28;20037;-69
2022/04/11 04:56:31;;;;;;;5.55;2.00;;;;;;;;;;5012969;28;20029;-68
2022/04/11 04:58:57;;;;;;;8.10;2.35;;;;;;;;;;5046432;28;20032;-69
2022/04/11 05:01:23;;;;;;;7.53;1.80;;;;;;;;;;5022765;28;20112;-69
2022/04/11 05:03:50;;;;;;;7.57;2.63;;;;;;;;;;5019049;28;20547;-69
2022/04/11 05:06:16;;;;;;;9.85;3.30;;;;;;;;;;5026778;28;20029;-69
2022/04/11 05:08:42;;;;;;;10.32;3.25;;;;;;;;;;5011940;28;20600;-69
2022/04/11 05:11:08;;;;;;;2.80;1.80;;;;;;;;;;5028460;28;20057;-68
2022/04/11 05:13:34;;;;;;;13.00;2.65;;;;;;;;;;5011166;28;20030;-68
2022/04/11 05:16:00;;;;;;;5.07;1.45;;;;;;;;;;5025883;28;20108;-68
2022/04/11 05:18:26;;;;;;;6.60;2.08;;;;;;;;;;4999330;28;20062;-68
2022/04/11 05:20:52;;;;;;;5.40;1.73;;;;;;;;;;5011352;28;20034;-69
2022/04/11 05:23:19;;;;;;;4.53;1.58;;;;;;;;;;5034811;28;20021;-68
2022/04/11 05:25:45;;;;;;;3.80;1.52;;;;;;;;;;5022657;28;20032;-68
2022/04/11 05:28:11;;;;;;;6.53;1.40;;;;;;;;;;5040611;28;20057;-68
2022/04/11 05:30:37;;;;;;;3.80;1.60;;;;;;;;;;5018354;28;20037;-68
2022/04/11 05:33:03;;;;;;;3.15;1.23;;;;;;;;;;5031495;28;20034;-68
2022/04/11 05:35:29;;;;;;;6.60;1.77;;;;;;;;;;5012851;28;20450;-68
2022/04/11 05:37:55;;;;;;;6.47;2.00;;;;;;;;;;5031162;28;20049;-68
2022/04/11 05:40:22;;;;;;;7.03;2.10;;;;;;;;;;5010753;28;20048;-68
2022/04/11 05:42:48;;;;;;;6.45;1.83;;;;;;;;;;5028812;28;20053;-68
2022/04/11 05:45:14;;;;;;;6.97;2.30;;;;;;;;;;5044098;28;20025;-68
2022/04/11 05:47:40;;;;;;;5.63;2.38;;;;;;;;;;5012681;28;20084;-68
2022/04/11 05:50:06;;;;;;;6.57;1.83;;;;;;;;;;5028868;28;20441;-68
2022/04/11 05:52:32;;;;;;;5.70;2.60;;;;;;;;;;4995458;28;20470;-68
2022/04/11 05:54:59;;;;;;;5.45;1.75;;;;;;;;;;5013019;28;20124;-68
2022/04/11 05:57:25;;;;;;;5.45;2.03;;;;;;;;;;5030881;28;20111;-68
2022/04/11 05:59:51;;;;;;;4.07;1.70;;;;;;;;;;5032650;28;20033;-68
2022/04/11 06:02:17;;;;;;;2.53;1.63;;;;;;;;;;5029892;28;20026;-68
2022/04/11 06:04:43;;;;;;;7.00;2.08;;;;;;;;;;5030718;28;20037;-69
2022/04/11 06:07:09;;;;;;;9.50;2.17;;;;;;;;;;5013011;28;20037;-69
2022/04/11 06:09:35;;;;;;;4.35;2.00;;;;;;;;;;5014357;28;20033;-69
2022/04/11 06:12:01;;;;;;;5.05;1.80;;;;;;;;;;5033127;28;20436;-69
2022/04/11 06:14:27;;;;;;;4.65;2.40;;;;;;;;;;5054640;28;20104;-68
2022/04/11 06:16:53;;;;;;;8.45;2.63;;;;;;;;;;5037716;28;20029;-69
2022/04/11 06:19:19;;;;;;;5.70;2.03;;;;;;;;;;5030468;28;20026;-69
2022/04/11 06:21:45;;;;;;;6.47;2.33;;;;;;;;;;5026173;28;20020;-69
2022/04/11 06:24:11;;;;;;;5.53;1.80;;;;;;;;;;5034397;28;20048;-69
2022/04/11 06:26:39;;;;;;;5.85;1.83;;;;;;;;;;5034957;28;20036;-69
2022/04/11 06:29:05;;;;;;;3.47;1.50;;;;;;;;;;5043271;28;20060;-69
2022/04/11 06:31:31;;;;;;;5.85;2.35;;;;;;;;;;5029533;28;20385;-69
2022/04/11 06:33:57;;;;;;;4.10;1.73;;;;;;;;;;5033111;28;20021;-68
2022/04/11 06:36:23;;;;;;;5.50;2.22;;;;;;;;;;5027566;28;20181;-70
2022/04/11 06:38:49;;;;;;;5.85;2.20;;;;;;;;;;5016395;28;20519;-70
2022/04/11 06:41:15;;;;;;;17.98;11.40;;;;;;;;;;5015672;28;20116;-69
2022/04/11 06:43:41;;;;;;;42.35;19.80;;;;;;;;;;5028292;28;20280;-76
2022/04/11 06:46:07;;;;;;;19.25;5.30;;;;;;;;;;5014050;28;20028;-79
2022/04/11 06:48:33;;;;;;;12.70;4.57;;;;;;;;;;5030478;28;20060;-69
2022/04/11 06:50:59;;;;;;;13.48;2.63;;;;;;;;;;5033025;28;20032;-69
2022/04/11 06:53:25;;;;;;;6.95;2.50;;;;;;;;;;5034920;28;20530;-69
2022/04/11 06:55:52;;;;;;;5.53;2.28;;;;;;;;;;5014682;28;20030;-69
2022/04/11 06:58:18;;;;;;;10.98;2.20;;;;;;;;;;5047255;28;20022;-69
2022/04/11 07:00:45;;;;;;;5.00;2.13;;;;;;;;;;5033227;28;20560;-70
2022/04/11 07:03:11;;;;;;;6.53;2.22;;;;;;;;;;5028569;28;20060;-70
2022/04/11 07:05:40;;;;;;;7.70;2.58;;;;;;;;;;5027440;28;20041;-76
2022/04/11 07:08:06;;;;;;;10.15;5.15;;;;;;;;;;5029766;28;20029;-71
2022/04/11 07:10:33;;;;;;;32.13;13.63;;;;;;;;;;5033724;28;20049;-71
2022/04/11 07:13:00;;;;;;;10.05;5.35;;;;;;;;;;5031295;28;20056;-70
2022/04/11 07:15:26;;;;;;;6.63;2.20;;;;;;;;;;5033473;28;20056;-70
2022/04/11 07:17:52;;;;;;;4.93;1.88;;;;;;;;;;5013383;28;20420;-70
2022/04/11 07:20:18;;;;;;;7.15;2.28;;;;;;;;;;5032124;28;20025;-70
2022/04/11 07:22:44;;;;;;;9.27;2.42;;;;;;;;;;5025477;28;20041;-70
2022/04/11 07:25:11;;;;;;;5.78;1.80;;;;;;;;;;5032026;28;20358;-70
2022/04/11 07:27:37;;;;;;;3.47;2.53;;;;;;;;;;5032341;28;20034;-69
2022/04/11 07:30:06;;;;;;;4.25;1.90;;;;;;;;;;5033421;28;20041;-70
2022/04/11 07:32:32;;;;;;;6.20;2.30;;;;;;;;;;5053725;28;20037;-70
2022/04/11 07:34:59;;;;;;;6.10;3.45;;;;;;;;;;5031857;28;20080;-70
2022/04/11 07:37:27;;;;;;;8.38;2.55;;;;;;;;;;5030846;28;20040;-70
2022/04/11 07:39:54;;;;;;;6.32;3.25;;;;;;;;;;5032948;28;20033;-69
2022/04/11 07:42:20;;;;;;;12.55;4.78;;;;;;;;;;5021314;28;20017;-70
2022/04/11 07:44:46;;;;;;;51.58;23.27;;;;;;;;;;5023404;28;20108;-70
2022/04/11 07:47:12;;;;;;;10.90;4.28;;;;;;;;;;5029507;28;20033;-71
2022/04/11 07:49:40;;;;;;;5.68;2.60;;;;;;;;;;5025684;28;20037;-70
2022/04/11 07:52:06;;;;;;;8.05;3.13;;;;;;;;;;5022304;28;20033;-70
2022/04/11 07:54:32;;;;;;;8.32;2.80;;;;;;;;;;5034519;28;20088;-70
2022/04/11 07:56:58;;;;;;;5.35;2.20;;;;;;;;;;5032874;28;20030;-70
2022/04/11 07:59:25;;;;;;;5.22;2.67;;;;;;;;;;5026324;28;20037;-70
2022/04/11 08:01:52;;;;;;;4.90;2.10;;;;;;;;;;5037643;28;20030;-71
2022/04/11 08:04:18;;;;;;;7.72;2.40;;;;;;;;;;5031783;28;20029;-70
2022/04/11 08:06:44;;;;;;;7.30;2.13;;;;;;;;;;5045595;28;20033;-69
2022/04/11 08:09:10;;;;;;;12.48;2.90;;;;;;;;;;5032783;28;20052;-69
2022/04/11 08:11:36;;;;;;;7.38;2.25;;;;;;;;;;5031638;28;20045;-69
2022/04/11 08:14:02;;;;;;;5.28;1.85;;;;;;;;;;5032749;28;20026;-69
2022/04/11 08:16:28;;;;;;;7.88;2.50;;;;;;;;;;5023186;28;20026;-69
2022/04/11 08:18:54;;;;;;;6.10;2.17;;;;;;;;;;5031911;28;20037;-69
2022/04/11 08:21:20;;;;;;;5.50;2.47;;;;;;;;;;5034531;28;20500;-69
2022/04/11 08:23:46;;;;;;;6.18;2.17;;;;;;;;;;5029208;28;20466;-69
2022/04/11 08:26:13;;;;;;;6.47;2.33;;;;;;;;;;5029248;28;20029;-69
2022/04/11 08:28:39;;;;;;;6.15;2.15;;;;;;;;;;5016597;28;20044;-70
2022/04/11 08:31:06;;;;;;;4.25;1.98;;;;;;;;;;5027467;28;20022;-69
2022/04/11 08:33:32;;;;;;;10.30;2.22;;;;;;;;;;5030618;28;20039;-69
2022/04/11 08:35:58;;;;;;;6.72;1.73;;;;;;;;;;5032164;28;20130;-69
2022/04/11 08:38:24;;;;;;;5.70;1.60;;;;;;;;;;5013940;28;20045;-69
2022/04/11 08:40:51;;;;;;;24.15;13.23;;;;;;;;;;5031902;28;20072;-69
2022/04/11 08:43:21;;;;;;;20.98;12.02;;;;;;;;;;5029458;28;20025;-69
2022/04/11 08:45:48;;;;;;;2.92;1.42;;;;;;;;;;5031250;28;20387;-69
2022/04/11 08:48:14;;;;;;;5.45;1.73;;;;;;;;;;5030854;28;20034;-69
2022/04/11 08:50:40;;;;;;;3.40;1.15;;;;;;;;;;5040677;28;20046;-70
2022/04/11 08:53:06;;;;;;;4.95;1.38;;;;;;;;;;5031070;28;20033;-69
2022/04/11 08:55:34;;;;;;;4.78;1.25;;;;;;;;;;5042770;28;20025;-70
2022/04/11 08:58:00;;;;;;;4.65;1.58;;;;;;;;;;4994566;28;20117;-70
2022/04/11 09:00:27;;;;;;;1.63;0.98;;;;;;;;;;5044177;28;20473;-70
2022/04/11 09:02:53;;;;;;;3.00;0.95;;;;;;;;;;5004581;28;20105;-69
2022/04/11 09:05:24;;;;;;;5.75;1.17;;;;;;;;;;5028120;28;20128;-69
2022/04/11 09:07:54;;;;;;;1.90;0.93;;;;;;;;;;5033781;28;20029;-69
2022/04/11 09:10:24;;;;;;;7.03;2.90;;;;;;;;;;5028575;28;20049;-69
2022/04/11 09:12:51;;;;;;;7.93;3.20;;;;;;;;;;5021720;28;20056;-70
2022/04/11 09:15:18;;;;;;;5.90;2.78;;;;;;;;;;5026079;28;20385;-70
2022/04/11 09:17:44;;;;;;;2.80;0.80;;;;;;;;;;5029999;28;20061;-69
2022/04/11 09:20:12;;;;;;;8.88;1.23;;;;;;;;;;5030343;28;20549;-69
2022/04/11 09:22:38;;;;;;;1.85;0.95;;;;;;;;;;5030380;28;20457;-69
2022/04/11 09:25:11;;;;;;;2.78;1.10;;;;;;;;;;5025453;28;20026;-69
2022/04/11 09:27:37;;;;;;;2.85;1.27;;;;;;;;;;5031008;28;20029;-70
2022/04/11 09:30:17;;;;;;;2.85;1.00;;;;;;;;;;5038375;28;20037;-69
2022/04/11 09:32:52;;;;;;;2.45;1.20;;;;;;;;;;5020333;28;20041;-70
2022/04/11 09:35:22;;;;;;;4.88;1.38;;;;;;;;;;5024706;28;20029;-69
2022/04/11 09:37:48;;;;;;;7.65;1.88;;;;;;;;;;5031235;28;20025;-69
2022/04/11 09:40:21;;;;;;;2.50;1.10;;;;;;;;;;5025985;28;20045;-70
2022/04/11 09:42:57;;;;;;;8.73;3.80;;;;;;;;;;5020155;28;20034;-71
2022/04/11 09:45:23;;;;;;;5.45;2.80;;;;;;;;;;5018620;28;20496;-70
2022/04/11 09:48:02;;;;;;;7.50;2.30;;;;;;;;;;5020742;28;20037;-70
2022/04/11 09:50:29;;;;;;;4.70;1.45;;;;;;;;;;5018833;28;20128;-71
2022/04/11 09:53:06;;;;;;;6.15;1.48;;;;;;;;;;5024479;28;20125;-70
2022/04/11 09:55:33;;;;;;;3.40;1.20;;;;;;;;;;5006381;28;20029;-70
2022/04/11 09:57:59;;;;;;;6.50;1.35;;;;;;;;;;5012152;28;20037;-70
2022/04/11 10:00:25;;;;;;;3.05;1.85;;;;;;;;;;5025732;28;20505;-76
2022/04/11 10:02:51;;;;;;;15.23;9.32;;;;;;;;;;4994553;28;20386;-77
2022/04/11 10:05:18;;;;;;;3.17;1.35;;;;;;;;;;5013447;28;20156;-70
2022/04/11 10:07:45;;;;;;;4.55;1.48;;;;;;;;;;5012297;28;20025;-71
2022/04/11 10:10:15;;;;;;;4.78;1.60;;;;;;;;;;5017100;28;20453;-69
2022/04/11 10:12:42;;;;;;;3.63;1.40;;;;;;;;;;5020576;28;20029;-70
2022/04/11 10:15:09;;;;;;;7.68;1.40;;;;;;;;;;5029603;28;20033;-70
2022/04/11 10:17:35;;;;;;;4.35;1.27;;;;;;;;;;5019052;28;20033;-70
2022/04/11 10:20:01;;;;;;;5.00;1.85;;;;;;;;;;5024247;28;20481;-70
2022/04/11 10:22:28;;;;;;;5.82;1.48;;;;;;;;;;5012953;28;20123;-70
2022/04/11 10:25:06;;;;;;;3.17;1.35;;;;;;;;;;5030293;28;20038;-70
2022/04/11 10:27:32;;;;;;;3.80;1.42;;;;;;;;;;5027016;28;20041;-70
2022/04/11 10:29:59;;;;;;;3.92;1.60;;;;;;;;;;5018044;28;20067;-69
2022/04/11 10:32:29;;;;;;;4.28;2.35;;;;;;;;;;5019169;28;20132;-69
2022/04/11 10:35:00;;;;;;;4.18;1.45;;;;;;;;;;5020104;28;20380;-69
2022/04/11 10:37:46;;;;;;;5.10;2.05;;;;;;;;;;5014871;28;20071;-69
2022/04/11 10:40:19;;;;;;;7.72;1.85;;;;;;;;;;5025854;28;20041;-68
2022/04/11 10:43:10;;;;;;;6.47;2.00;;;;;;;;;;5011738;28;20033;-69
2022/04/11 10:45:38;;;;;;;4.00;1.60;;;;;;;;;;5018885;28;20404;-70
2022/04/11 10:48:05;;;;;;;4.78;1.52;;;;;;;;;;5027977;28;20020;-70
2022/04/11 10:50:35;;;;;;;4.47;1.73;;;;;;;;;;5029878;28;20073;-69
2022/04/11 10:53:27;;;;;;;5.95;2.20;;;;;;;;;;5021758;28;20104;-69
2022/04/11 10:56:07;;;;;;;7.38;2.65;;;;;;;;;;5021978;28;20050;-69
2022/04/11 10:58:45;;;;;;;4.65;2.22;;;;;;;;;;5023407;28;20116;-68
2022/04/11 11:01:12;;;;;;;4.40;2.13;;;;;;;;;;5033065;28;20025;-68
2022/04/11 11:03:41;;;;;;;5.50;2.83;;;;;;;;;;5042724;28;20115;-69
2022/04/11 11:06:18;;;;;;;7.10;2.90;;;;;;;;;;5037337;28;20057;-68
2022/04/11 11:08:44;;;;;;;4.75;2.22;;;;;;;;;;5032523;28;20197;-68
2022/04/11 11:11:24;;;;;;;7.10;3.45;;;;;;;;;;5009309;28;20056;-68
2022/04/11 11:13:51;;;;;;;8.50;3.72;;;;;;;;;;5019141;28;20443;-70
2022/04/11 11:16:17;;;;;;;7.80;3.85;;;;;;;;;;5040667;28;20061;-69
2022/04/11 11:18:50;;;;;;;6.40;3.58;;;;;;;;;;5019113;28;20026;-69
2022/04/11 11:21:16;;;;;;;5.55;2.45;;;;;;;;;;5033448;28;20069;-69
2022/04/11 11:23:42;;;;;;;8.13;3.33;;;;;;;;;;5024065;28;20037;-69
2022/04/11 11:26:13;;;;;;;5.75;3.15;;;;;;;;;;5027709;28;20025;-70
2022/04/11 11:28:43;;;;;;;5.05;3.40;;;;;;;;;;5013967;28;20091;-69
2022/04/11 11:31:09;;;;;;;7.05;3.65;;;;;;;;;;5013810;28;20038;-69
2022/04/11 11:33:36;;;;;;;4.93;3.60;;;;;;;;;;5032596;28;20080;-69
2022/04/11 11:36:02;;;;;;;8.40;4.28;;;;;;;;;;5031700;28;20108;-69
2022/04/11 11:38:29;;;;;;;6.57;4.05;;;;;;;;;;5033060;28;20025;-69
2022/04/11 11:40:59;;;;;;;8.10;3.42;;;;;;;;;;5031471;28;20033;-69
2022/04/11 11:43:26;;;;;;;7.20;3.55;;;;;;;;;;5032665;28;20129;-69
2022/04/11 11:45:52;;;;;;;8.35;3.65;;;;;;;;;;5031501;28;20030;-69
2022/04/11 11:48:22;;;;;;;7.03;3.85;;;;;;;;;;5032282;28;20470;-69
2022/04/11 11:50:49;;;;;;;8.32;4.15;;;;;;;;;;5029365;28;20038;-69
2022/04/11 11:53:15;;;;;;;6.38;3.72;;;;;;;;;;5031288;28;20025;-69
2022/04/11 11:56:04;;;;;;;9.23;4.32;;;;;;;;;;5028597;28;20038;-69
2022/04/11 11:58:37;;;;;;;9.13;4.13;;;;;;;;;;5028164;28;20481;-69
2022/04/11 12:01:04;;;;;;;7.50;3.85;;;;;;;;;;5031369;28;20160;-69
2022/04/11 12:06:22;;;;;;;6.18;3.72;;;;;;;;;;5024504;28;20436;-69
2022/04/11 12:08:58;;;;;;;8.77;4.30;;;;;;;;;;5031856;28;20026;-69
2022/04/11 12:11:26;;;;;;;7.05;3.50;;;;;;;;;;5025315;28;20087;-69
2022/04/11 12:13:59;;;;;;;10.85;4.50;;;;;;;;;;5030510;28;20828;-69
2022/04/11 12:16:25;;;;;;;8.05;4.13;;;;;;;;;;5032178;28;20112;-69
2022/04/11 12:18:53;;;;;;;7.55;3.50;;;;;;;;;;5032458;28;20029;-69
2022/04/11 12:21:28;;;;;;;5.20;3.83;;;;;;;;;;5031380;28;20061;-69
2022/04/11 12:23:54;;;;;;;5.72;3.42;;;;;;;;;;5032092;28;20052;-69
2022/04/11 12:26:29;;;;;;;7.55;3.60;;;;;;;;;;5014413;28;20355;-69
2022/04/11 12:28:56;;;;;;;7.90;4.25;;;;;;;;;;5027560;28;20053;-69
2022/04/11 12:31:22;;;;;;;8.10;4.53;;;;;;;;;;5029243;28;20087;-68
2022/04/11 12:33:52;;;;;;;7.85;4.18;;;;;;;;;;5032016;28;20033;-69
2022/04/11 12:36:28;;;;;;;9.07;4.03;;;;;;;;;;5030579;28;20136;-69
2022/04/11 12:38:58;;;;;;;6.95;3.78;;;;;;;;;;5025569;28;20026;-68
2022/04/11 12:41:24;;;;;;;5.57;3.30;;;;;;;;;;5028949;28;20124;-68
2022/04/11 12:44:19;;;;;;;5.32;3.65;;;;;;;;;;5032885;28;20029;-69
2022/04/11 12:46:57;;;;;;;8.32;3.60;;;;;;;;;;4976094;28;20368;-68
2022/04/11 12:49:24;;;;;;;10.02;3.72;;;;;;;;;;5029718;28;20045;-68
2022/04/11 12:52:00;;;;;;;6.47;3.08;;;;;;;;;;5028809;28;20036;-68
2022/04/11 12:54:39;;;;;;;5.82;4.15;;;;;;;;;;5031969;28;20037;-68
2022/04/11 12:57:06;;;;;;;5.68;3.47;;;;;;;;;;5047424;28;20409;-68
2022/04/11 12:59:34;;;;;;;7.90;4.15;;;;;;;;;;5030106;28;20045;-68
2022/04/11 13:02:05;;;;;;;6.07;3.30;;;;;;;;;;5020793;28;20029;-68
2022/04/11 13:04:31;;;;;;;9.55;3.60;;;;;;;;;;5012088;28;20067;-68
2022/04/11 13:06:57;;;;;;;7.07;3.33;;;;;;;;;;5027026;28;20071;-68
2022/04/11 13:09:24;;;;;;;7.47;3.10;;;;;;;;;;5030514;28;20045;-68
2022/04/11 13:11:50;;;;;;;6.03;3.20;;;;;;;;;;5031930;28;20045;-68
2022/04/11 13:14:17;;;;;;;6.20;3.60;;;;;;;;;;5031743;28;20037;-68
2022/04/11 13:19:28;;;;;;;6.30;3.30;;;;;;;;;;5030282;28;20494;-68
2022/04/11 13:21:54;;;;;;;7.40;4.32;;;;;;;;;;5027683;28;20033;-68
2022/04/11 13:24:20;;;;;;;6.63;3.75;;;;;;;;;;5020158;28;24185;-68
2022/04/11 13:26:48;;;;;;;9.10;4.30;;;;;;;;;;5025363;28;20030;-68
2022/04/11 13:29:15;;;;;;;5.78;3.72;;;;;;;;;;5016312;28;20037;-67
2022/04/11 13:31:41;;;;;;;6.22;3.03;;;;;;;;;;5021935;28;20084;-67
2022/04/11 13:34:07;;;;;;;7.82;3.90;;;;;;;;;;5005256;28;20037;-68
2022/04/11 13:36:33;;;;;;;8.32;3.08;;;;;;;;;;5042261;28;20029;-68
2022/04/11 13:38:59;;;;;;;8.10;3.47;;;;;;;;;;5036992;28;20594;-68
2022/04/11 13:41:26;;;;;;;5.25;3.20;;;;;;;;;;5028664;28;20033;-68
2022/04/11 13:43:52;;;;;;;4.80;3.15;;;;;;;;;;5030261;28;20478;-68
2022/04/11 13:46:18;;;;;;;5.30;3.10;;;;;;;;;;5039531;28;20025;-68
2022/04/11 13:48:44;;;;;;;7.60;3.80;;;;;;;;;;5012559;28;20034;-67
2022/04/11 13:51:10;;;;;;;5.68;3.47;;;;;;;;;;5017885;28;20037;-68
2022/04/11 13:53:36;;;;;;;8.02;4.68;;;;;;;;;;5022764;28;20034;-68
2022/04/11 13:56:05;;;;;;;10.77;5.25;;;;;;;;;;5030531;28;20042;-68
2022/04/11 13:58:32;;;;;;;5.47;3.65;;;;;;;;;;5025321;28;20053;-67
2022/04/11 14:00:58;;;;;;;5.45;3.50;;;;;;;;;;5020586;28;20143;-67
2022/04/11 14:03:24;;;;;;;7.40;3.45;;;;;;;;;;5046155;28;20661;-68
2022/04/11 14:05:50;;;;;;;9.13;3.72;;;;;;;;;;5020857;28;20033;-67
2022/04/11 14:08:16;;;;;;;4.30;3.10;;;;;;;;;;5017198;28;20026;-67
2022/04/11 14:10:44;;;;;;;4.95;3.15;;;;;;;;;;5012246;28;20069;-67
2022/04/11 14:13:10;;;;;;;7.40;3.50;;;;;;;;;;5018930;28;20021;-68
2022/04/11 14:15:36;;;;;;;10.35;7.63;;;;;;;;;;5021724;28;20093;-68
2022/04/11 14:18:02;;;;;;;73.10;53.50;;;;;;;;;;5017135;28;20183;-69
2022/04/11 14:20:29;;;;;;;11.07;4.05;;;;;;;;;;5028489;28;20038;-69
2022/04/11 14:22:55;;;;;;;5.25;3.63;;;;;;;;;;5030149;28;20030;-68
2022/04/11 14:25:21;;;;;;;6.10;3.30;;;;;;;;;;5028975;28;20033;-68
2022/04/11 14:27:47;;;;;;;6.18;3.45;;;;;;;;;;5030585;28;20037;-69
2022/04/11 14:30:13;;;;;;;6.03;3.65;;;;;;;;;;5030690;28;20052;-68
2022/04/11 14:32:39;;;;;;;5.75;3.20;;;;;;;;;;5031840;28;20037;-68
2022/04/11 14:35:06;;;;;;;7.28;4.13;;;;;;;;;;5034388;28;20114;-68
2022/04/11 14:37:32;;;;;;;6.13;3.30;;;;;;;;;;5032940;28;20102;-68
2022/04/11 14:39:58;;;;;;;5.07;3.33;;;;;;;;;;5030211;28;20049;-68
2022/04/11 14:42:24;;;;;;;8.10;3.33;;;;;;;;;;5027924;28;20044;-69
2022/04/11 14:44:50;;;;;;;6.10;3.05;;;;;;;;;;5028059;28;20029;-68
2022/04/11 14:47:16;;;;;;;4.55;3.10;;;;;;;;;;5037515;28;20033;-68